KEBS

Webster City Municipal Airport

Webster City, Iowa, USA
METAR KEBS 190635Z AUTO 02017G22KT 5SM UP OVC005 M10/M12 A3015 RMK AO2
Observed Flight Rules
Jan-19 @ 06:35 UTC (24 minutes ago) Instrument Flight Rules
Wind Visibility Clouds Conditions
20° at 17 knots
 Gusting to 22 knots
5 miles
  • Overcast at 500' AGL
  • Unknown precipitation
Temperatures Readings
Current -10°C / 14°F
Dewpoint -12°C / 10°F
Humidity 85%
Altimeter 30.15" Hg
Pressure 1021.02 hPa
Elevation 342
METAR KEBS 190635Z AUTO 02017G22KT 5SM UP OVC005 M10/M12 A3015 RMK AO2
Observed Flight Rules
Jan-19 @ 06:35 UTC
(24 minutes ago)
IFR
Wind Visibility
20° at 17 knots
 Gusting to 22 knots
5 miles
Clouds
  • Overcast at 500' AGL
Conditions
  • Unknown precipitation
Temperature Dewpoint
-10°C / 14°F -12°C / 10°F
Humidity Altimeter Pressure
85% 30.15" Hg 1021.02 hPa